Terminal Aerodrome Forecast
Issued by NWS Binghamton, NY

Home | Current Version | Previous Version | Text Only | Print | Product List | Glossary On
Versions: 1 2 3 4 5 6 7 8 9 10 11 12 13 14
000
FTUS41 KBGM 291130
TAFSYR
TAF
KSYR 291130Z 2912/3012 VRB03KT P6SM SCT100 BKN150
     FM291600 23008KT P6SM SCT060 BKN250
      TEMPO 2917/2921 TSRA SCT030 BKN060CB
     FM300100 19004KT P6SM -SHRA BKN050 OVC100=

USA.gov is the U.S. government's official web portal to all federal, state and local government web resources and services.